Time;durP1;ratioP1;P1;durP2;ratioP2;P2;SDS_P1;SDS_P2;PMS_P1;PMS_P2;Temp;Humidity;BMP_temperature;BMP_pressure;BME280_temperature;BME280_humidity;BME280_pressure;Samples;Min_cycle;Max_cycle;Signal;HPM_P1;HPM_P2
2022/12/29 00:02:22;;;;;;;;;0.00;0.00;;;;;11.75;81.45;99976.66;5012565;28;46415;-61
2022/12/29 00:04:49;;;;;;;;;2.00;0.00;;;;;11.74;81.38;99987.91;5013091;28;45762;-61
2022/12/29 00:07:15;;;;;;;;;1.00;1.00;;;;;11.79;80.93;99994.34;5012241;28;45913;-60
2022/12/29 00:09:40;;;;;;;;;2.00;0.00;;;;;11.79;80.86;99980.59;5025806;28;45349;-61
2022/12/29 00:12:06;;;;;;;;;0.00;0.00;;;;;11.61;80.80;99950.47;5014831;28;47316;-61
2022/12/29 00:17:15;;;;;;;;;1.00;1.00;;;;;11.83;80.51;99980.13;5028973;28;45346;-61
2022/12/29 00:36:33;;;;;;;;;0.00;0.00;;;;;11.89;81.19;99968.16;5012310;28;45422;-59
2022/12/29 00:44:40;;;;;;;;;0.00;0.00;;;;;11.85;82.54;99951.31;4987565;28;45554;-58
2022/12/29 00:47:06;;;;;;;;;1.00;1.00;;;;;11.85;82.56;99958.72;4998353;28;45845;-59
2022/12/29 00:49:31;;;;;;;;;1.00;1.00;;;;;11.84;83.24;99952.38;5012513;28;45465;-60
2022/12/29 00:52:02;;;;;;;;;0.75;0.50;;;;;11.83;82.89;99955.38;5012675;28;45935;-60
2022/12/29 00:54:32;;;;;;;;;1.80;1.80;;;;;11.82;83.23;99967.44;5011907;28;45509;-60
2022/12/29 00:56:58;;;;;;;;;1.60;0.60;;;;;11.77;83.86;99958.03;5011383;28;45752;-61
2022/12/29 00:59:23;;;;;;;;;1.00;1.00;;;;;11.80;83.81;99978.69;5027148;28;45439;-60
2022/12/29 01:01:49;;;;;;;;;1.00;1.00;;;;;11.60;83.93;99948.81;5014114;28;45958;-61
2022/12/29 01:04:15;;;;;;;;;0.00;0.00;;;;;11.81;84.05;99972.13;5031462;28;45664;-60
2022/12/29 01:06:41;;;;;;;;;0.50;0.50;;;;;11.83;84.11;99986.47;5031754;28;45397;-59
2022/12/29 01:11:50;;;;;;;;;0.00;0.00;;;;;11.76;84.09;99972.84;5031518;28;45399;-60
2022/12/29 01:14:16;;;;;;;;;1.00;1.00;;;;;11.82;84.42;99961.94;5004508;28;45512;-58
2022/12/29 01:16:42;;;;;;;;;2.00;2.00;;;;;11.79;84.39;99953.09;5032166;28;45836;-58
2022/12/29 01:19:07;;;;;;;;;1.00;1.00;;;;;11.85;84.39;99980.72;5014912;28;45428;-59
2022/12/29 01:21:33;;;;;;;;;2.50;1.25;;;;;11.64;84.03;99933.53;4995683;28;45549;-61
2022/12/29 01:23:58;;;;;;;;;1.00;1.00;;;;;11.88;83.81;99972.00;5012532;28;46066;-58
2022/12/29 01:26:24;;;;;;;;;2.00;2.00;;;;;11.87;83.46;99978.56;5010764;28;45449;-58
2022/12/29 01:28:49;;;;;;;;;1.00;1.00;;;;;11.88;83.59;99975.59;4994031;28;45471;-59
2022/12/29 01:31:15;;;;;;;;;1.00;1.00;;;;;11.76;83.48;99961.84;4994057;28;45477;-60
2022/12/29 01:33:41;;;;;;;;;1.75;1.00;;;;;11.90;83.41;99980.84;4992513;28;47671;-59
2022/12/29 01:36:09;;;;;;;;;3.00;1.75;;;;;11.88;83.70;99972.00;5030236;28;45696;-57
2022/12/29 01:38:35;;;;;;;;;0.60;0.60;;;;;11.93;83.50;99986.72;5031362;28;45421;-61
2022/12/29 01:41:00;;;;;;;;;0.00;0.00;;;;;11.88;83.43;99958.25;5013836;28;45405;-60
2022/12/29 01:43:51;;;;;;;;;1.75;0.75;;;;;11.89;82.87;99979.16;5031570;28;46032;-60
2022/12/29 01:46:27;;;;;;;;;0.00;0.00;;;;;11.66;82.36;99954.19;4993323;28;45512;-60
2022/12/29 01:49:15;;;;;;;;;3.60;0.00;;;;;11.87;82.48;99995.06;4993688;28;45538;-59
2022/12/29 01:51:42;;;;;;;;;1.00;0.00;;;;;11.85;82.71;99983.47;5011380;28;45706;-58
2022/12/29 01:54:11;;;;;;;;;2.00;0.00;;;;;11.83;81.86;99982.84;4993360;28;46234;-60
2022/12/29 01:56:36;;;;;;;;;0.00;0.00;;;;;11.55;81.46;99944.03;4977058;28;45518;-60
2022/12/29 01:59:06;;;;;;;;;0.00;0.00;;;;;11.70;81.93;99950.97;5003784;28;45607;-57
2022/12/29 02:01:31;;;;;;;;;0.00;0.00;;;;;11.78;82.01;99978.94;5013741;28;45627;-59
2022/12/29 02:03:57;;;;;;;;;0.00;0.00;;;;;11.80;81.69;99979.53;5012603;28;46549;-60
2022/12/29 02:06:26;;;;;;;;;0.00;0.00;;;;;11.74;81.82;99996.97;5013077;28;45378;-59
2022/12/29 02:08:53;;;;;;;;;1.00;0.00;;;;;11.72;81.72;99995.53;4985510;28;45476;-59
2022/12/29 02:11:18;;;;;;;;;0.00;0.00;;;;;11.72;81.88;100010.13;4988386;28;45677;-60
2022/12/29 02:13:44;;;;;;;;;1.25;0.00;;;;;11.70;82.14;100011.44;4986843;28;47085;-60
2022/12/29 02:16:12;;;;;;;;;0.75;0.00;;;;;11.59;82.29;100019.41;5030626;28;45447;-60
2022/12/29 02:18:47;;;;;;;;;0.80;0.00;;;;;11.56;82.04;100022.66;5020116;28;45428;-60
2022/12/29 02:21:24;;;;;;;;;0.40;0.00;;;;;11.44;83.04;100002.53;4992984;28;45568;-57
2022/12/29 02:24:04;;;;;;;;;0.00;0.00;;;;;11.46;82.68;100014.13;5014242;28;45635;-59
2022/12/29 02:26:33;;;;;;;;;0.20;0.00;;;;;11.45;81.83;100007.81;4993201;28;45466;-60
2022/12/29 02:29:13;;;;;;;;;1.00;0.00;;;;;11.43;81.74;99987.13;5011331;28;45366;-60
2022/12/29 02:31:46;;;;;;;;;0.00;0.00;;;;;11.40;80.80;99982.94;4993642;28;45610;-58
2022/12/29 02:34:22;;;;;;;;;3.00;0.00;;;;;11.31;80.49;99985.19;4991491;28;47050;-59
2022/12/29 02:36:47;;;;;;;;;0.80;0.00;;;;;11.10;81.69;99950.91;5010845;28;45486;-60
2022/12/29 02:39:24;;;;;;;;;0.00;0.00;;;;;11.14;81.92;99957.56;4998934;28;45480;-59
2022/12/29 02:42:04;;;;;;;;;0.00;0.00;;;;;11.09;80.11;99951.94;5013145;28;45867;-58
2022/12/29 02:44:53;;;;;;;;;0.00;0.00;;;;;11.29;81.15;99981.00;5015913;28;45637;-59
2022/12/29 02:47:18;;;;;;;;;0.00;0.00;;;;;11.21;80.27;99980.28;4968826;28;45575;-60
2022/12/29 02:49:59;;;;;;;;;0.00;0.00;;;;;11.28;81.09;99974.69;5014992;28;45441;-59
2022/12/29 02:52:35;;;;;;;;;0.00;0.00;;;;;11.27;79.58;99969.44;5014694;28;45563;-59
2022/12/29 02:55:01;;;;;;;;;1.00;0.00;;;;;11.23;79.72;99972.66;4981339;28;45410;-59
2022/12/29 02:57:26;;;;;;;;;0.00;0.00;;;;;11.19;79.83;99971.44;4996776;28;45315;-58
2022/12/29 02:59:53;;;;;;;;;0.00;0.00;;;;;11.03;78.77;99947.38;5014711;28;45515;-58
2022/12/29 03:02:56;;;;;;;;;1.00;0.00;;;;;11.28;78.64;99977.44;4996933;28;45400;-58
2022/12/29 03:05:43;;;;;;;;;0.00;0.00;;;;;11.29;78.35;99979.13;5014293;28;45398;-58
2022/12/29 03:08:26;;;;;;;;;0.00;0.00;;;;;11.29;78.97;99965.38;4999696;28;45449;-58
2022/12/29 03:12:07;;;;;;;;;0.80;0.00;;;;;11.33;78.48;99963.00;4981396;28;45441;-58
2022/12/29 03:16:44;;;;;;;;;1.00;1.00;;;;;11.32;78.12;99961.31;4999101;28;45524;-55
2022/12/29 03:19:33;;;;;;;;;0.00;0.00;;;;;11.31;77.92;99965.16;4997150;28;45797;-61
2022/12/29 03:24:52;;;;;;;;;0.80;0.00;;;;;11.27;77.98;99970.28;5014556;28;45412;-59
2022/12/29 03:27:35;;;;;;;;;2.20;0.20;;;;;11.24;77.42;99970.72;4980467;28;46385;-58
2022/12/29 03:30:02;;;;;;;;;1.40;0.40;;;;;11.21;78.18;99980.28;4982906;28;45430;-59
2022/12/29 03:32:49;;;;;;;;;0.20;0.00;;;;;11.15;77.52;99981.22;4980626;28;45383;-61
2022/12/29 03:35:17;;;;;;;;;1.40;0.00;;;;;11.14;76.93;99986.97;4982159;28;45255;-59
2022/12/29 03:37:53;;;;;;;;;1.20;0.00;;;;;11.13;77.31;99983.38;5013917;28;45713;-58
2022/12/29 03:40:19;;;;;;;;;0.80;0.80;;;;;11.16;77.77;99985.63;5014540;28;45335;-59
2022/12/29 03:42:44;;;;;;;;;4.00;0.50;;;;;11.19;77.18;99981.59;4996721;28;45881;-59
2022/12/29 03:45:10;;;;;;;;;0.00;0.00;;;;;11.19;76.77;99992.56;4980648;28;45526;-59
2022/12/29 03:47:35;;;;;;;;;0.00;0.00;;;;;10.87;76.50;99943.44;4980210;28;45384;-59
2022/12/29 03:50:01;;;;;;;;;0.00;0.00;;;;;11.21;77.42;99985.78;4979565;28;45336;-59
2022/12/29 03:52:26;;;;;;;;;0.00;0.00;;;;;11.21;77.02;99990.44;5032416;28;45333;-60
2022/12/29 03:54:52;;;;;;;;;0.00;0.00;;;;;11.28;77.20;99993.06;5036557;28;45363;-59
2022/12/29 03:57:17;;;;;;;;;0.00;0.00;;;;;11.31;76.44;99992.63;5037702;28;46732;-59
2022/12/29 03:59:43;;;;;;;;;0.00;0.00;;;;;11.33;76.72;99985.81;5037037;28;45476;-59
2022/12/29 04:02:08;;;;;;;;;0.00;0.00;;;;;11.36;76.75;99982.59;5037506;28;45371;-57
2022/12/29 04:04:34;;;;;;;;;0.00;0.00;;;;;11.12;76.72;99946.81;5037828;28;45254;-59
2022/12/29 04:06:59;;;;;;;;;0.50;0.00;;;;;11.19;76.15;99965.09;5037294;28;46223;-59
2022/12/29 04:09:25;;;;;;;;;0.25;0.25;;;;;11.33;76.42;99995.97;5037536;28;45410;-59
2022/12/29 04:11:50;;;;;;;;;0.00;0.00;;;;;11.16;76.32;99968.34;5036995;28;45384;-60
2022/12/29 04:14:16;;;;;;;;;0.00;0.00;;;;;11.31;75.85;100004.44;5037774;28;45290;-59
2022/12/29 04:16:41;;;;;;;;;0.00;0.00;;;;;11.32;75.70;99995.09;5019021;28;47919;-59
2022/12/29 04:19:07;;;;;;;;;0.75;0.00;;;;;11.31;76.08;99998.94;5022886;28;45617;-59
2022/12/29 04:21:32;;;;;;;;;1.00;1.00;;;;;11.31;76.00;100003.59;4999563;28;45430;-59
2022/12/29 04:23:58;;;;;;;;;0.00;0.00;;;;;11.31;76.41;100004.44;5017360;28;45479;-57
2022/12/29 04:26:23;;;;;;;;;0.00;0.00;;;;;11.34;76.31;100022.34;5016978;28;45456;-59
2022/12/29 04:28:49;;;;;;;;;0.00;0.00;;;;;11.34;76.67;100025.94;5016994;28;45228;-58
2022/12/29 04:31:14;;;;;;;;;0.50;0.00;;;;;11.36;76.08;100025.69;5017161;28;45641;-58
2022/12/29 04:33:40;;;;;;;;;0.00;0.00;;;;;11.39;76.16;100031.56;4999579;28;45545;-58
2022/12/29 04:36:06;;;;;;;;;2.00;0.00;;;;;11.41;76.76;100039.56;5016386;28;46194;-59
2022/12/29 04:38:31;;;;;;;;;0.00;0.00;;;;;11.38;76.12;100032.63;5016824;28;45339;-59
2022/12/29 04:40:59;;;;;;;;;0.00;0.00;;;;;11.32;75.86;100017.09;4999105;28;45430;-59
2022/12/29 04:43:25;;;;;;;;;0.00;0.00;;;;;11.36;76.28;100023.78;5017109;28;45644;-59
2022/12/29 04:45:50;;;;;;;;;0.25;0.25;;;;;11.36;76.24;100045.78;5016589;28;46449;-59
2022/12/29 04:48:16;;;;;;;;;0.00;0.00;;;;;11.23;76.41;100024.00;5016654;28;45421;-57
2022/12/29 04:50:41;;;;;;;;;0.00;0.00;;;;;11.34;76.01;100036.09;5016791;28;45438;-58
2022/12/29 04:53:07;;;;;;;;;0.00;0.00;;;;;11.26;75.51;100029.00;5016753;28;45362;-59
2022/12/29 04:55:32;;;;;;;;;1.25;1.00;;;;;11.31;75.81;100039.31;5016522;28;45431;-58
2022/12/29 04:57:58;;;;;;;;;0.00;0.00;;;;;11.32;75.83;100033.56;4977755;28;45462;-60
2022/12/29 05:00:23;;;;;;;;;0.00;0.00;;;;;11.33;75.54;100048.16;5004208;28;45485;-59
2022/12/29 05:02:49;;;;;;;;;1.00;0.50;;;;;11.31;76.18;100045.63;5015363;28;45467;-59
2022/12/29 05:05:15;;;;;;;;;1.25;0.00;;;;;11.16;75.34;100032.31;5015929;28;46491;-59
2022/12/29 05:07:40;;;;;;;;;0.75;0.75;;;;;11.34;75.70;100066.31;4998607;28;45414;-62
2022/12/29 05:10:06;;;;;;;;;0.00;0.00;;;;;11.19;75.85;100037.38;4998577;28;45335;-61
2022/12/29 05:12:32;;;;;;;;;0.00;0.00;;;;;11.37;75.70;100068.59;5014653;28;45655;-58
2022/12/29 05:14:58;;;;;;;;;0.00;0.00;;;;;11.30;75.77;100054.13;5015851;28;46102;-58
2022/12/29 05:17:24;;;;;;;;;1.00;0.00;;;;;11.22;75.47;100030.56;5015529;28;45278;-59
2022/12/29 05:19:50;;;;;;;;;1.00;0.75;;;;;11.35;75.49;100074.31;5033861;28;45204;-57
2022/12/29 05:22:15;;;;;;;;;4.60;0.20;;;;;11.34;75.40;100063.56;5036038;28;45245;-59
2022/12/29 05:24:41;;;;;;;;;0.00;0.00;;;;;11.30;74.70;100051.38;5036155;28;45950;-60
2022/12/29 05:27:06;;;;;;;;;2.75;0.00;;;;;11.32;74.26;100062.97;5035570;28;45369;-59
2022/12/29 05:29:32;;;;;;;;;4.25;1.25;;;;;11.30;73.90;100052.22;5035762;28;45392;-60
2022/12/29 05:31:57;;;;;;;;;0.00;0.00;;;;;10.93;73.72;100006.47;5036136;28;45345;-60
2022/12/29 05:34:22;;;;;;;;;1.00;0.25;;;;;11.28;73.49;100061.75;5017506;28;46369;-60
2022/12/29 05:36:48;;;;;;;;;1.75;0.75;;;;;11.23;73.60;100067.94;5035580;28;45358;-59
2022/12/29 05:39:13;;;;;;;;;0.00;0.00;;;;;11.25;73.22;100083.13;5035833;28;45397;-59
2022/12/29 05:41:39;;;;;;;;;0.00;0.00;;;;;11.04;73.29;100046.00;5035623;28;45412;-59
2022/12/29 05:44:04;;;;;;;;;2.25;1.00;;;;;11.23;72.66;100077.03;5035463;28;46007;-58
2022/12/29 05:46:30;;;;;;;;;1.00;1.00;;;;;11.21;72.51;100073.66;5017201;28;45598;-57
2022/12/29 05:48:55;;;;;;;;;1.25;1.00;;;;;11.17;72.50;100075.22;5001395;28;45319;-59
2022/12/29 05:51:21;;;;;;;;;0.50;0.00;;;;;11.14;72.64;100070.19;5035426;28;45574;-59
2022/12/29 05:53:46;;;;;;;;;0.00;0.00;;;;;11.15;72.92;100085.59;5035223;28;45782;-59
2022/12/29 05:56:12;;;;;;;;;1.25;1.00;;;;;11.16;72.76;100084.50;5035295;28;45490;-59
2022/12/29 05:58:37;;;;;;;;;1.00;0.50;;;;;11.16;71.77;100094.66;5035221;28;45324;-60
2022/12/29 06:01:03;;;;;;;;;1.25;0.00;;;;;11.16;72.23;100095.50;5036059;28;45429;-59
2022/12/29 06:03:28;;;;;;;;;1.50;1.50;;;;;11.17;72.39;100108.19;5035012;28;45416;-60
2022/12/29 06:05:54;;;;;;;;;1.00;1.00;;;;;11.14;72.20;100108.63;5035548;28;45422;-59
2022/12/29 06:08:20;;;;;;;;;0.00;0.00;;;;;11.14;71.90;100119.63;5017689;28;45333;-59
2022/12/29 06:10:45;;;;;;;;;0.75;0.75;;;;;11.12;71.85;100100.63;5035402;28;45382;-59
2022/12/29 06:13:10;;;;;;;;;1.00;0.00;;;;;11.12;71.74;100121.75;5017096;28;46970;-58
2022/12/29 06:15:36;;;;;;;;;3.25;0.00;;;;;11.11;72.21;100122.84;5034955;28;45497;-59
2022/12/29 06:18:02;;;;;;;;;1.50;0.00;;;;;11.05;71.89;100110.03;5014680;28;45351;-59
2022/12/29 06:20:27;;;;;;;;;2.00;0.00;;;;;10.93;72.06;100088.81;5015692;28;45395;-59
2022/12/29 06:22:52;;;;;;;;;1.50;0.25;;;;;11.11;71.78;100120.09;5014800;28;47215;-59
2022/12/29 06:25:18;;;;;;;;;5.00;3.00;;;;;10.90;71.94;100107.66;5015429;28;45402;-59
2022/12/29 06:27:44;;;;;;;;;0.00;0.00;;;;;11.08;71.84;100128.78;5014885;28;45533;-59
2022/12/29 06:30:10;;;;;;;;;1.25;0.00;;;;;10.89;72.41;100092.28;5015537;28;45441;-59
2022/12/29 06:32:35;;;;;;;;;3.00;2.00;;;;;11.09;72.47;100127.69;5014953;28;45766;-58
2022/12/29 06:35:02;;;;;;;;;2.75;1.00;;;;;11.06;72.31;100137.25;5015141;28;45323;-58
2022/12/29 06:37:27;;;;;;;;;0.80;0.00;;;;;11.05;72.23;100145.72;4997317;28;45501;-59
2022/12/29 06:39:53;;;;;;;;;1.00;1.00;;;;;11.03;72.54;100156.94;5014950;28;45339;-59
2022/12/29 06:42:18;;;;;;;;;1.00;1.00;;;;;11.05;72.20;100153.97;4997248;28;45286;-59
2022/12/29 06:44:44;;;;;;;;;2.50;1.50;;;;;11.03;72.88;100156.94;5014918;28;45375;-59
2022/12/29 06:47:09;;;;;;;;;1.00;0.00;;;;;11.02;72.76;100165.41;5014805;28;45443;-59
2022/12/29 06:49:35;;;;;;;;;0.00;0.00;;;;;11.02;72.35;100171.75;5015656;28;45477;-59
2022/12/29 06:52:03;;;;;;;;;0.00;0.00;;;;;10.93;72.71;100154.72;5004586;28;46582;-60
2022/12/29 06:54:29;;;;;;;;;0.60;0.00;;;;;10.93;72.54;100168.44;5000713;28;45369;-59
2022/12/29 06:56:55;;;;;;;;;0.50;0.00;;;;;11.04;72.20;100188.00;5014553;28;45401;-59
2022/12/29 06:59:20;;;;;;;;;0.00;0.00;;;;;10.84;72.62;100158.84;5015003;28;45421;-59
2022/12/29 07:01:46;;;;;;;;;1.25;0.25;;;;;11.02;72.73;100199.19;5014379;28;45444;-59
2022/12/29 07:04:11;;;;;;;;;0.00;0.00;;;;;11.03;72.98;100203.63;5014060;28;45905;-59
2022/12/29 07:06:37;;;;;;;;;2.75;0.00;;;;;11.04;72.45;100207.22;5014731;28;45344;-60
2022/12/29 07:09:03;;;;;;;;;4.00;1.00;;;;;11.03;72.39;100191.78;5014411;28;45445;-59
2022/12/29 07:11:28;;;;;;;;;5.00;1.25;;;;;11.04;72.82;100188.81;5014343;28;46763;-59
2022/12/29 07:13:54;;;;;;;;;0.00;0.00;;;;;10.78;72.74;100152.34;5014220;28;45396;-59
2022/12/29 07:16:19;;;;;;;;;1.50;0.25;;;;;10.99;72.46;100180.41;5014423;28;45414;-58
2022/12/29 07:18:45;;;;;;;;;0.80;0.40;;;;;11.01;72.02;100203.00;5020811;28;45346;-57
2022/12/29 07:21:11;;;;;;;;;1.00;1.00;;;;;11.02;72.36;100201.09;5034014;28;45469;-56
2022/12/29 07:23:37;;;;;;;;;2.00;1.00;;;;;11.03;73.03;100209.13;5034138;28;45396;-58
2022/12/29 07:26:04;;;;;;;;;0.00;0.00;;;;;11.00;72.68;100211.47;5019171;28;45559;-59
2022/12/29 07:28:29;;;;;;;;;1.80;1.00;;;;;10.97;72.63;100210.88;5019981;28;45489;-61
2022/12/29 07:30:55;;;;;;;;;1.25;0.00;;;;;10.89;72.90;100199.34;5037857;28;46287;-60
2022/12/29 07:33:20;;;;;;;;;1.75;0.00;;;;;10.94;72.97;100225.03;5037201;28;45442;-59
2022/12/29 07:35:46;;;;;;;;;1.00;0.75;;;;;10.68;73.02;100177.56;5037590;28;45348;-60
2022/12/29 07:38:12;;;;;;;;;1.00;1.00;;;;;10.84;72.74;100222.81;5037463;28;45526;-58
2022/12/29 07:40:37;;;;;;;;;3.25;1.25;;;;;10.69;72.56;100192.16;5037390;28;46471;-60
2022/12/29 07:43:03;;;;;;;;;3.00;0.00;;;;;10.93;72.85;100230.75;5019328;28;45430;-60
2022/12/29 07:45:29;;;;;;;;;1.60;1.00;;;;;10.94;72.30;100233.28;5019640;28;45413;-58
2022/12/29 07:47:55;;;;;;;;;1.75;1.25;;;;;10.72;71.78;100205.41;5019710;28;45242;-59
2022/12/29 07:50:20;;;;;;;;;0.75;0.00;;;;;10.79;72.03;100219.91;5037259;28;45942;-60
2022/12/29 07:52:47;;;;;;;;;1.75;0.00;;;;;10.82;72.37;100224.09;5037160;28;45275;-61
2022/12/29 07:55:16;;;;;;;;;2.80;1.40;;;;;10.95;71.99;100245.94;5037252;28;45392;-60
2022/12/29 07:57:42;;;;;;;;;2.00;0.00;;;;;10.96;71.94;100242.16;5037324;28;45380;-59
2022/12/29 08:00:09;;;;;;;;;3.00;1.00;;;;;10.94;71.99;100255.25;5037028;28;45385;-60
2022/12/29 08:02:35;;;;;;;;;2.80;2.00;;;;;10.95;72.18;100258.84;5002876;28;45477;-59
2022/12/29 08:05:00;;;;;;;;;4.75;3.00;;;;;10.94;71.76;100266.22;5019538;28;45332;-60
2022/12/29 08:07:26;;;;;;;;;5.00;2.00;;;;;10.91;71.66;100263.94;5036954;28;45571;-59
2022/12/29 08:09:51;;;;;;;;;3.00;1.00;;;;;10.91;71.71;100268.59;5019137;28;46545;-60
2022/12/29 08:12:17;;;;;;;;;4.00;3.75;;;;;10.92;71.55;100271.13;5037331;28;45945;-60
2022/12/29 08:14:43;;;;;;;;;4.60;4.40;;;;;10.95;71.90;100267.91;5037090;28;45443;-60
2022/12/29 08:17:08;;;;;;;;;2.50;2.50;;;;;10.75;70.30;100248.03;5037282;28;45454;-59
2022/12/29 08:19:34;;;;;;;;;3.75;2.25;;;;;10.93;71.24;100266.44;5006504;28;45736;-58
2022/12/29 08:21:59;;;;;;;;;3.25;2.75;;;;;10.95;70.87;100265.16;5017204;28;45522;-58
2022/12/29 08:24:25;;;;;;;;;2.00;1.00;;;;;10.98;70.83;100277.59;5016948;28;45342;-58
2022/12/29 08:26:50;;;;;;;;;4.50;1.00;;;;;11.00;70.60;100282.88;5017215;28;45507;-59
2022/12/29 08:29:16;;;;;;;;;3.00;1.75;;;;;10.98;70.42;100285.84;5017168;28;46377;-60
2022/12/29 08:31:42;;;;;;;;;4.25;2.00;;;;;11.00;70.29;100294.72;4998906;28;45406;-60
2022/12/29 08:34:07;;;;;;;;;2.25;1.00;;;;;11.04;70.22;100295.91;5016918;28;45325;-60
2022/12/29 08:36:33;;;;;;;;;2.25;1.00;;;;;11.03;70.04;100294.25;5016707;28;45678;-60
2022/12/29 08:38:58;;;;;;;;;2.00;0.00;;;;;10.89;69.87;100277.03;5016658;28;46131;-59
2022/12/29 08:41:24;;;;;;;;;0.00;0.00;;;;;10.97;70.05;100298.75;5016887;28;45296;-61
2022/12/29 08:43:49;;;;;;;;;3.75;2.00;;;;;10.90;69.25;100281.50;5016492;28;45386;-60
2022/12/29 08:46:16;;;;;;;;;3.50;2.50;;;;;11.07;69.65;100314.72;5017248;28;45235;-59
2022/12/29 08:48:41;;;;;;;;;3.00;1.00;;;;;10.92;68.38;100309.56;5014850;28;45997;-62
2022/12/29 08:51:07;;;;;;;;;2.00;2.00;;;;;10.78;69.52;100291.53;5004170;28;45460;-60
2022/12/29 08:53:33;;;;;;;;;1.00;1.00;;;;;10.96;69.47;100318.19;5015514;28;45406;-60
2022/12/29 08:55:59;;;;;;;;;4.75;0.00;;;;;10.97;69.62;100331.69;4981300;28;45560;-60
2022/12/29 08:58:25;;;;;;;;;1.00;1.00;;;;;10.97;69.83;100326.19;5015573;28;46013;-60
2022/12/29 09:00:53;;;;;;;;;1.20;0.60;;;;;11.01;69.36;100328.47;5017600;28;45954;-60
2022/12/29 09:03:18;;;;;;;;;2.80;0.40;;;;;11.01;69.04;100340.31;5035058;28;45754;-55
2022/12/29 09:05:50;;;;;;;;;2.25;2.25;;;;;10.97;69.76;100334.44;5016891;28;45488;-58
2022/12/29 09:08:16;;;;;;;;;1.60;1.40;;;;;11.03;69.12;100337.31;5018773;28;45792;-60
2022/12/29 09:10:42;;;;;;;;;3.00;1.25;;;;;11.00;69.18;100343.28;5034732;28;45639;-61
2022/12/29 09:13:08;;;;;;;;;3.00;1.40;;;;;11.06;69.56;100347.88;5035522;28;45305;-60
2022/12/29 09:15:33;;;;;;;;;8.00;7.50;;;;;11.04;69.06;100342.59;5036457;28;45177;-61
2022/12/29 09:17:59;;;;;;;;;8.00;7.00;;;;;11.08;69.33;100356.72;5005015;28;46438;-60
2022/12/29 09:20:24;;;;;;;;;4.00;3.00;;;;;11.08;69.08;100356.72;5017953;28;45279;-60
2022/12/29 09:22:50;;;;;;;;;0.00;0.00;;;;;11.06;68.98;100356.13;4997951;28;45230;-56
2022/12/29 09:25:15;;;;;;;;;3.50;0.25;;;;;11.05;69.79;100358.00;5016318;28;45193;-60
2022/12/29 09:27:41;;;;;;;;;3.00;1.00;;;;;11.07;69.54;100355.03;4998027;28;45328;-57
2022/12/29 09:30:08;;;;;;;;;1.50;1.00;;;;;10.96;69.53;100332.75;5015480;28;45371;-60
2022/12/29 09:32:34;;;;;;;;;4.60;2.00;;;;;11.08;69.00;100356.72;5016096;28;45646;-60
2022/12/29 09:34:59;;;;;;;;;2.00;2.00;;;;;11.08;69.64;100364.97;4997629;28;45365;-60
2022/12/29 09:37:25;;;;;;;;;2.00;1.50;;;;;11.11;69.99;100365.34;5015542;28;45996;-60
2022/12/29 09:39:50;;;;;;;;;6.00;1.00;;;;;11.09;69.35;100369.38;5015082;28;45442;-60
2022/12/29 09:42:18;;;;;;;;;2.00;0.00;;;;;11.12;70.00;100364.28;4995613;28;46595;-61
2022/12/29 09:44:49;;;;;;;;;2.60;1.60;;;;;11.12;69.66;100374.44;4986516;28;45640;-60
2022/12/29 09:47:15;;;;;;;;;1.00;1.00;;;;;11.15;69.28;100378.66;4991933;28;45465;-61
2022/12/29 09:50:11;;;;;;;;;4.00;1.80;;;;;11.16;69.36;100383.06;4999932;28;45612;-62
2022/12/29 09:52:59;;;;;;;;;3.80;1.40;;;;;11.17;69.24;100387.50;4981604;28;45603;-61
2022/12/29 09:55:36;;;;;;;;;3.60;2.00;;;;;11.17;68.76;100379.25;5030347;28;45504;-63
2022/12/29 09:58:05;;;;;;;;;1.80;1.00;;;;;11.18;69.02;100380.94;5029387;28;45813;-61
2022/12/29 10:00:54;;;;;;;;;2.40;1.40;;;;;11.15;68.84;100390.47;5030960;28;45477;-61
2022/12/29 10:03:20;;;;;;;;;9.60;3.00;;;;;11.15;68.84;100387.72;4977397;28;45460;-62
2022/12/29 10:06:10;;;;;;;;;1.80;0.00;;;;;11.22;68.66;100402.22;4977128;28;46008;-61
2022/12/29 10:08:47;;;;;;;;;2.40;2.40;;;;;11.09;68.75;100377.63;5011126;28;46563;-62
2022/12/29 10:11:46;;;;;;;;;2.00;2.00;;;;;11.16;68.38;100370.16;4993544;28;45589;-61
2022/12/29 10:14:43;;;;;;;;;3.20;1.00;;;;;11.49;68.42;100399.22;5024459;28;45441;-60
2022/12/29 10:17:32;;;;;;;;;2.00;2.00;;;;;11.38;67.86;100367.84;5030391;28;45391;-62
2022/12/29 10:20:17;;;;;;;;;3.20;3.20;;;;;11.63;67.55;100396.38;4980908;28;46689;-61
2022/12/29 10:23:16;;;;;;;;;6.00;1.80;;;;;11.55;66.97;100391.16;5010728;28;45478;-61
2022/12/29 10:25:41;;;;;;;;;7.40;2.20;;;;;11.68;67.35;100407.50;5007563;28;45506;-61
2022/12/29 10:28:19;;;;;;;;;4.75;1.00;;;;;11.70;66.89;100408.16;5012673;28;45688;-60
2022/12/29 10:30:46;;;;;;;;;4.00;2.60;;;;;11.61;66.99;100395.75;5012455;28;45461;-60
2022/12/29 10:33:13;;;;;;;;;5.80;2.40;;;;;11.60;66.69;100394.94;5012589;28;46013;-60
2022/12/29 10:35:40;;;;;;;;;12.40;3.40;;;;;11.46;67.12;100363.13;4996043;28;45511;-60
2022/12/29 10:38:14;;;;;;;;;1.20;0.60;;;;;11.65;66.68;100402.47;5005763;28;45466;-60
2022/12/29 10:40:46;;;;;;;;;3.00;1.40;;;;;11.64;66.88;100398.88;5010523;28;45999;-60
2022/12/29 10:43:25;;;;;;;;;2.20;1.00;;;;;11.71;66.06;100400.72;4982143;28;45437;-59
2022/12/29 10:45:53;;;;;;;;;1.60;1.60;;;;;11.74;65.69;100397.53;5010529;28;45415;-60
2022/12/29 10:48:22;;;;;;;;;3.20;0.80;;;;;11.49;64.99;100363.50;4976398;28;45873;-60
2022/12/29 10:50:49;;;;;;;;;0.80;0.80;;;;;11.69;65.33;100406.44;4992139;28;47660;-60
2022/12/29 10:53:22;;;;;;;;;3.20;2.00;;;;;11.53;65.26;100377.66;4992500;28;45453;-60
2022/12/29 10:55:48;;;;;;;;;0.80;0.80;;;;;11.82;65.04;100404.63;4992554;28;45510;-61
2022/12/29 10:58:14;;;;;;;;;2.25;0.25;;;;;11.88;65.08;100406.44;4976630;28;45675;-59
2022/12/29 11:00:39;;;;;;;;;5.75;2.25;;;;;11.92;65.01;100391.19;4978573;28;47008;-60
2022/12/29 11:03:17;;;;;;;;;1.00;1.00;;;;;11.78;64.25;100369.34;4996301;28;45370;-60
2022/12/29 11:05:53;;;;;;;;;2.40;1.40;;;;;11.73;63.76;100358.19;5013488;28;45562;-61
2022/12/29 11:08:31;;;;;;;;;5.00;2.00;;;;;12.03;64.01;100397.81;4995075;28;45863;-61
2022/12/29 11:11:15;;;;;;;;;3.60;1.00;;;;;11.71;63.75;100349.34;4996738;28;46699;-59
2022/12/29 11:13:48;;;;;;;;;1.80;1.80;;;;;11.94;63.78;100391.78;4998829;28;45721;-61
2022/12/29 11:16:14;;;;;;;;;3.60;2.40;;;;;12.02;63.76;100407.16;4999301;28;45850;-61
2022/12/29 11:18:40;;;;;;;;;3.50;2.50;;;;;11.93;63.82;100390.13;5016067;28;45394;-60
2022/12/29 11:21:30;;;;;;;;;2.00;1.00;;;;;12.22;63.49;100414.34;5001958;28;46158;-61
2022/12/29 11:24:14;;;;;;;;;3.00;2.00;;;;;12.38;62.75;100412.88;5030393;28;45519;-54
2022/12/29 11:26:41;;;;;;;;;3.00;2.00;;;;;12.21;62.67;100383.22;5002476;28;45790;-61
2022/12/29 11:29:28;;;;;;;;;2.60;2.00;;;;;12.42;62.71;100387.41;4979630;28;45571;-60
2022/12/29 11:31:58;;;;;;;;;8.40;3.20;;;;;12.61;62.60;100409.38;4995870;28;46417;-61
2022/12/29 11:34:32;;;;;;;;;2.60;2.00;;;;;12.90;60.83;100394.97;5013318;28;45844;-60
2022/12/29 11:37:17;;;;;;;;;3.80;1.20;;;;;16.32;54.81;100395.84;5011952;28;45520;-61
2022/12/29 11:40:01;;;;;;;;;4.00;2.60;;;;;18.50;48.30;100394.66;4996611;28;45752;-61
2022/12/29 11:43:02;;;;;;;;;5.40;2.00;;;;;18.19;46.77;100400.09;5013095;28;45530;-62
2022/12/29 11:45:32;;;;;;;;;6.00;3.40;;;;;16.20;49.39;100420.06;5010860;28;48161;-63
2022/12/29 11:48:08;;;;;;;;;2.20;0.80;;;;;15.15;52.11;100387.28;4995060;28;45458;-63
2022/12/29 11:50:39;;;;;;;;;1.80;1.00;;;;;14.54;54.14;100382.34;5005684;28;45472;-60
2022/12/29 11:53:16;;;;;;;;;3.80;2.00;;;;;14.27;55.48;100393.13;4998991;28;45487;-56
2022/12/29 11:56:00;;;;;;;;;2.00;1.00;;;;;13.95;56.39;100394.41;5032712;28;45441;-55
2022/12/29 11:58:44;;;;;;;;;2.60;2.00;;;;;13.87;55.81;100387.34;5033204;28;45496;-62
2022/12/29 12:01:39;;;;;;;;;4.40;3.00;;;;;13.76;56.46;100363.41;5033093;28;45877;-62
2022/12/29 12:04:10;;;;;;;;;5.00;1.60;;;;;13.40;57.40;100339.41;5009480;28;46412;-63
2022/12/29 12:06:38;;;;;;;;;2.60;1.20;;;;;13.60;56.52;100364.97;4979011;28;45468;-57
2022/12/29 12:09:07;;;;;;;;;4.00;2.80;;;;;13.48;57.21;100332.75;4995747;28;45519;-56
2022/12/29 12:11:37;;;;;;;;;6.20;2.20;;;;;13.69;57.58;100369.88;4983672;28;45382;-60